Poole, Nebraska
Current Conditions -  °F | °C
As of 6:15 AM on Friday 21 Nov 2014 (Local Time) from KEAR Reporting Station
Clear Clear  
Wind Chill: 12°   Ceiling: Unl
Heat Index: 23°   Visibility: 10mi
Dew Point: 18°   Wind: 10mph
Humidity: 80%   Direction: 160°SSE
Pressure: 30.1"   Gusts: NA
Location:  41.0033°N, 98.8321°W
Report Text: KEAR 211215Z 16009KT 10SM CLR M05/M08 A3010 RMK AO1
Loading
Personal Weather Stations






























Interactive Weather Map New forecast layout! Learn more

10-Day Weather Forecast

Advertisements
Track Severe Weather on mobile